ADDS METAR Data INFO
IDs: Format: Raw Decoded Include TAF

Data at: 2040 UTC 16 Dec 2017

PHJR 161953Z 17005KT 10SM CLR 23/17 A2986 RMK AO2 SLP119 T02330172 $
PHJR 161853Z 04004KT 10SM CLR 23/18 A2986 RMK AO2 SLP118 T02280178 $
PHJR 161753Z 04005KT 10SM CLR 18/16 A2986 RMK AO2 SLP117 T01830161 10194 20167 53008 $
PHJR 161653Z 02004KT 10SM CLR 17/16 A2985 RMK AO2 SLP115 T01720161 $
PHJR 161553Z 04004KT 10SM CLR 18/16 A2984 RMK AO2 SLP109 T01780161 $
PHJR 161453Z AUTO 04004KT 10SM CLR 17/17 A2984 RMK AO2 SLP109 T01720167 56011 TSNO $
PHJR 161353Z AUTO 06003KT 10SM CLR 18/17 A2984 RMK AO2 SLP110 T01780172 TSNO $
PHJR 161253Z AUTO VRB03KT 10SM FEW032 18/17 A2984 RMK AO2 SLP112 T01830172 TSNO $
PHJR 161153Z AUTO 05006KT 7SM FEW026 BKN036 OVC080 19/18 A2987 RMK AO2 SLP120 70003 T01890178 10211 20167 58015 TSNO $
PHJR 161053Z AUTO 00000KT 10SM FEW070 BKN090 18/17 A2988 RMK AO2 SLP125 T01830167 TSNO $
PHJR 160953Z AUTO 05003KT 10SM SCT034 BKN042 BKN050 18/16 A2990 RMK AO2 SLP131 T01780156 402560167 TSNO $
PHJR 160853Z AUTO 00000KT 10SM CLR 17/15 A2991 RMK AO2 SLP135 LAST T01720150 58003 TSNO $
PHJR 160753Z VRB04KT 10SM FEW045 SCT055 20/17 A2992 RMK AO2 SLP138 T02000167 $
PHJR 160710Z 00000KT 10SM FEW005 20/16 A2992 RMK AO2 T02000156 $
PHJR 160653Z 33005KT 10SM FEW027 FEW043 20/16 A2992 RMK AO2 SLP138 T02000156 $
PHJR 160621Z VRB05KT 10SM SCT022 BKN045 21/16 A2992 RMK AO2 T02110156 $
PHJR 160553Z VRB05KT 10SM BKN017 BKN055 21/16 A2992 RMK AO2 SLP138 T02110161 10250 20194 53010 $
PHJR 160453Z VRB05KT 10SM CLR 21/16 A2991 RMK AO2 SLP133 T02060161
PHJR 160353Z VRB06G15KT 10SM FEW042 20/17 A2989 RMK AO2 SLP128 T02000167
PHJR 160253Z VRB06KT 10SM CLR 23/15 A2989 RMK AO2 SLP128 T02280150 55007
PHJR 160153Z 01011G20KT 320V040 10SM FEW036 SCT090 23/16 A2989 RMK AO2 SLP126 T02330156
PHJR 160053Z 36007KT 320V030 10SM FEW036 FEW065 24/16 A2990 RMK AO2 SLP129 T02440156
PHJR 152353Z 01007G15KT 350V050 10SM SCT100 24/14 A2991 RMK AO2 SLP135 60003 T02440144 10256 20189 58030
PHJR 152253Z 05008G16KT 10SM FEW049 26/14 A2994 RMK AO2 SLP146 P0003 T02560139
PHJR 152153Z 05009G18KT 4SM FEW038 SCT050 BKN070 24/14 A2999 RMK AO2 SLP162 T02390144
PHJR 152053Z 03008KT 350V060 10SM CLR 24/15 A3000 RMK AO2 SLP165 T02390150 58005
PHJR 151953Z 04006G17KT 10SM FEW065 23/14 A3002 RMK AO2 SLP171 T02280144
PHJR 151853Z VRB03KT 10SM FEW026 SCT041 BKN055 19/16 A3003 RMK AO2 SLP175 T01940161
PHJR 151834Z VRB04KT 10SM FEW033 SCT055 BKN070 19/16 A3003 RMK AO2 T01940161
PHJR 151753Z VRB03KT 10SM SCT050 19/14 A3002 RMK AO2 SLP170 T01940139 10194 20167 53009
PHJR 151701Z 00000KT 10SM SCT010 SCT060 18/12 A3000 RMK AO2 T01780122
PHJR 151653Z 00000KT 10SM BKN014 BKN065 18/12 A3000 RMK AO2 SLP163 T01830122
PHJR 151646Z 02003KT 10SM BKN014 BKN045 OVC065 19/12 A3000 RMK AO2 T01890122
PHJR 151553Z AUTO 34004KT 10SM FEW048 OVC060 19/12 A2999 RMK AO2 SLP162 T01890117 TSNO
PHJR 151523Z AUTO VRB03KT 10SM SCT018 BKN049 OVC060 18/11 A2999 RMK AO2 T01780106 TSNO
PHJR 151514Z AUTO 33004KT 10SM BKN012 OVC055 17/11 A2999 RMK AO2 T01720106 TSNO
PHJR 151508Z AUTO 00000KT 10SM BKN008 OVC055 17/11 A2999 RMK AO2 T01670106 TSNO
PHJR 151453Z AUTO 00000KT 10SM SCT007 BKN055 17/11 A2999 RMK AO2 SLP161 T01670106 55002 TSNO
PHJR 151449Z AUTO 00000KT 10SM SCT007 BKN055 17/11 A2999 RMK AO2 TSNO
PHJR 151353Z AUTO 03005KT 10SM CLR 19/11 A2999 RMK AO2 SLP161 T01890106 TSNO
PHJR 151253Z AUTO VRB03KT 10SM SCT050 18/13 A3000 RMK AO2 SLP164 T01780133 TSNO
PHJR 151153Z AUTO 31005KT 10SM BKN055 19/13 A3002 RMK AO2 SLP172 T01890133 10211 20172 56018 TSNO
PHJR 151053Z AUTO 00000KT 10SM FEW022 FEW050 18/14 A3004 RMK AO2 SLP177 T01830139 TSNO
PHJR 150953Z AUTO 03005KT 10SM FEW055 18/15 A3006 RMK AO2 SLP185 T01830150 402500178 TSNO
PHJR 150853Z AUTO VRB06KT 10SM BKN060 21/13 A3007 RMK AO2 SLP190 LAST T02060128 58000 TSNO